sensor_id;sensor_type;location;lat;lon;timestamp;pressure;altitude;pressure_sealevel;temperature;humidity
9721;BME280;4899;42.644;23.366;2022-08-04T00:01:55;94457.28;;;16.54;100.00
9721;BME280;4899;42.644;23.366;2022-08-04T00:04:31;94480.50;;;16.63;100.00
9721;BME280;4899;42.644;23.366;2022-08-04T00:07:04;94484.94;;;16.47;100.00
9721;BME280;4899;42.644;23.366;2022-08-04T00:09:38;94478.09;;;16.39;100.00
9721;BME280;4899;42.644;23.366;2022-08-04T00:12:10;94480.84;;;16.30;100.00
9721;BME280;4899;42.644;23.366;2022-08-04T00:14:46;94492.91;;;16.38;100.00
9721;BME280;4899;42.644;23.366;2022-08-04T00:17:13;94491.00;;;16.19;100.00
9721;BME280;4899;42.644;23.366;2022-08-04T00:19:46;94458.31;;;16.03;100.00
9721;BME280;4899;42.644;23.366;2022-08-04T00:22:16;94478.09;;;16.39;100.00
9721;BME280;4899;42.644;23.366;2022-08-04T00:24:46;94468.19;;;16.28;100.00
9721;BME280;4899;42.644;23.366;2022-08-04T00:27:14;94485.03;;;16.35;100.00
9721;BME280;4899;42.644;23.366;2022-08-04T00:29:42;94473.88;;;16.34;100.00
9721;BME280;4899;42.644;23.366;2022-08-04T00:32:08;94422.34;;;16.01;100.00
9721;BME280;4899;42.644;23.366;2022-08-04T00:34:36;94470.94;;;16.36;100.00
9721;BME280;4899;42.644;23.366;2022-08-04T00:37:04;94473.13;;;16.34;100.00
9721;BME280;4899;42.644;23.366;2022-08-04T00:39:32;94480.94;;;16.34;100.00
9721;BME280;4899;42.644;23.366;2022-08-04T00:42:16;94480.28;;;16.37;100.00
9721;BME280;4899;42.644;23.366;2022-08-04T00:45:02;94463.75;;;16.29;100.00
9721;BME280;4899;42.644;23.366;2022-08-04T00:47:40;94479.25;;;16.25;100.00
9721;BME280;4899;42.644;23.366;2022-08-04T00:50:11;94477.34;;;16.22;100.00
9721;BME280;4899;42.644;23.366;2022-08-04T00:52:55;94489.31;;;16.27;100.00
9721;BME280;4899;42.644;23.366;2022-08-04T00:58:22;94491.81;;;16.23;100.00
9721;BME280;4899;42.644;23.366;2022-08-04T01:01:00;94495.75;;;16.17;100.00
9721;BME280;4899;42.644;23.366;2022-08-04T01:03:49;94462.19;;;15.93;100.00
9721;BME280;4899;42.644;23.366;2022-08-04T01:06:23;94471.13;;;15.95;100.00
9721;BME280;4899;42.644;23.366;2022-08-04T01:09:01;94490.47;;;15.98;100.00
9721;BME280;4899;42.644;23.366;2022-08-04T01:11:46;94507.53;;;15.99;100.00
9721;BME280;4899;42.644;23.366;2022-08-04T01:14:35;94482.75;;;15.70;100.00
9721;BME280;4899;42.644;23.366;2022-08-04T01:17:19;94504.28;;;15.86;100.00
9721;BME280;4899;42.644;23.366;2022-08-04T01:19:58;94496.88;;;15.73;100.00
9721;BME280;4899;42.644;23.366;2022-08-04T01:25:58;94494.88;;;15.66;100.00
9721;BME280;4899;42.644;23.366;2022-08-04T01:28:34;94439.78;;;15.29;100.00
9721;BME280;4899;42.644;23.366;2022-08-04T01:31:07;94466.09;;;15.43;100.00
9721;BME280;4899;42.644;23.366;2022-08-04T01:33:36;94457.78;;;15.37;100.00
9721;BME280;4899;42.644;23.366;2022-08-04T01:36:05;94451.81;;;15.21;100.00
9721;BME280;4899;42.644;23.366;2022-08-04T01:38:36;94483.75;;;15.65;100.00
9721;BME280;4899;42.644;23.366;2022-08-04T01:41:06;94483.06;;;15.68;100.00
9721;BME280;4899;42.644;23.366;2022-08-04T01:43:34;94486.84;;;15.71;100.00
9721;BME280;4899;42.644;23.366;2022-08-04T01:46:04;94485.03;;;15.59;100.00
9721;BME280;4899;42.644;23.366;2022-08-04T01:48:31;94474.03;;;15.62;100.00
9721;BME280;4899;42.644;23.366;2022-08-04T01:51:03;94488.44;;;15.76;100.00
9721;BME280;4899;42.644;23.366;2022-08-04T01:53:32;94498.56;;;15.81;100.00
9721;BME280;4899;42.644;23.366;2022-08-04T01:56:00;94489.28;;;15.80;100.00
9721;BME280;4899;42.644;23.366;2022-08-04T01:58:29;94487.34;;;15.77;100.00
9721;BME280;4899;42.644;23.366;2022-08-04T02:00:57;94452.78;;;15.45;100.00
9721;BME280;4899;42.644;23.366;2022-08-04T02:03:28;94487.31;;;15.61;100.00
9721;BME280;4899;42.644;23.366;2022-08-04T02:06:01;94494.38;;;15.36;100.00
9721;BME280;4899;42.644;23.366;2022-08-04T02:08:38;94481.16;;;15.25;100.00
9721;BME280;4899;42.644;23.366;2022-08-04T02:11:14;94411.34;;;14.76;100.00
9721;BME280;4899;42.644;23.366;2022-08-04T02:13:53;94437.09;;;14.85;100.00
9721;BME280;4899;42.644;23.366;2022-08-04T02:16:28;94418.56;;;14.83;100.00
9721;BME280;4899;42.644;23.366;2022-08-04T02:19:01;94485.78;;;15.32;100.00
9721;BME280;4899;42.644;23.366;2022-08-04T02:21:31;94491.28;;;15.30;100.00
9721;BME280;4899;42.644;23.366;2022-08-04T02:24:01;94468.19;;;14.97;100.00
9721;BME280;4899;42.644;23.366;2022-08-04T02:26:31;94390.03;;;14.67;100.00
9721;BME280;4899;42.644;23.366;2022-08-04T02:29:03;94396.13;;;14.75;100.00
9721;BME280;4899;42.644;23.366;2022-08-04T02:31:38;94478.41;;;15.34;100.00
9721;BME280;4899;42.644;23.366;2022-08-04T02:34:12;94477.53;;;15.42;100.00
9721;BME280;4899;42.644;23.366;2022-08-04T02:36:42;94471.72;;;15.33;100.00
9721;BME280;4899;42.644;23.366;2022-08-04T02:39:10;94475.88;;;15.50;100.00
9721;BME280;4899;42.644;23.366;2022-08-04T02:41:39;94471.69;;;15.45;100.00
9721;BME280;4899;42.644;23.366;2022-08-04T02:44:07;94470.63;;;15.34;100.00
9721;BME280;4899;42.644;23.366;2022-08-04T02:46:36;94493.28;;;15.49;100.00
9721;BME280;4899;42.644;23.366;2022-08-04T02:49:05;94370.06;;;14.68;100.00
9721;BME280;4899;42.644;23.366;2022-08-04T02:51:35;94484.66;;;15.45;100.00
9721;BME280;4899;42.644;23.366;2022-08-04T02:54:04;94501.53;;;15.39;100.00
9721;BME280;4899;42.644;23.366;2022-08-04T02:56:32;94488.34;;;15.44;100.00
9721;BME280;4899;42.644;23.366;2022-08-04T02:59:01;94462.69;;;15.27;100.00
9721;BME280;4899;42.644;23.366;2022-08-04T03:01:29;94437.41;;;14.96;100.00
9721;BME280;4899;42.644;23.366;2022-08-04T03:04:22;94494.63;;;15.31;100.00
9721;BME280;4899;42.644;23.366;2022-08-04T03:07:23;94498.53;;;15.25;100.00
9721;BME280;4899;42.644;23.366;2022-08-04T03:10:22;94420.75;;;14.57;100.00
9721;BME280;4899;42.644;23.366;2022-08-04T03:13:31;94501.72;;;15.06;100.00
9721;BME280;4899;42.644;23.366;2022-08-04T03:22:31;94469.28;;;14.84;100.00
9721;BME280;4899;42.644;23.366;2022-08-04T03:25:40;94485.41;;;15.05;100.00
9721;BME280;4899;42.644;23.366;2022-08-04T03:28:52;94480.47;;;15.00;100.00
9721;BME280;4899;42.644;23.366;2022-08-04T03:32:00;94484.75;;;15.08;100.00
9721;BME280;4899;42.644;23.366;2022-08-04T03:34:50;94485.84;;;15.07;100.00
9721;BME280;4899;42.644;23.366;2022-08-04T03:37:43;94443.78;;;14.86;100.00
9721;BME280;4899;42.644;23.366;2022-08-04T03:40:33;94454.88;;;14.99;100.00
9721;BME280;4899;42.644;23.366;2022-08-04T03:43:26;94428.06;;;14.79;100.00
9721;BME280;4899;42.644;23.366;2022-08-04T03:46:26;94487.75;;;15.23;100.00
9721;BME280;4899;42.644;23.366;2022-08-04T03:49:47;94491.81;;;15.36;100.00
9721;BME280;4899;42.644;23.366;2022-08-04T03:52:48;94491.59;;;15.41;100.00
9721;BME280;4899;42.644;23.366;2022-08-04T03:55:53;94493.53;;;15.44;100.00
9721;BME280;4899;42.644;23.366;2022-08-04T04:01:57;94499.72;;;15.55;100.00
9721;BME280;4899;42.644;23.366;2022-08-04T04:07:45;94499.72;;;15.55;100.00
9721;BME280;4899;42.644;23.366;2022-08-04T04:10:29;94503.19;;;15.59;100.00
9721;BME280;4899;42.644;23.366;2022-08-04T04:16:27;94474.72;;;15.47;100.00
9721;BME280;4899;42.644;23.366;2022-08-04T04:19:28;94498.72;;;15.72;100.00
9721;BME280;4899;42.644;23.366;2022-08-04T04:22:10;94522.75;;;15.85;100.00
9721;BME280;4899;42.644;23.366;2022-08-04T04:25:07;94508.69;;;15.86;100.00
9721;BME280;4899;42.644;23.366;2022-08-04T04:27:46;94501.22;;;15.84;100.00
9721;BME280;4899;42.644;23.366;2022-08-04T04:30:22;94493.78;;;15.83;100.00
9721;BME280;4899;42.644;23.366;2022-08-04T04:33:02;94519.44;;;16.00;100.00
9721;BME280;4899;42.644;23.366;2022-08-04T04:35:39;94512.56;;;16.08;100.00
9721;BME280;4899;42.644;23.366;2022-08-04T04:38:38;94507.91;;;16.13;100.00
9721;BME280;4899;42.644;23.366;2022-08-04T04:41:23;94519.13;;;16.17;100.00
9721;BME280;4899;42.644;23.366;2022-08-04T04:44:16;94528.16;;;16.23;100.00
9721;BME280;4899;42.644;23.366;2022-08-04T04:46:52;94524.81;;;16.23;100.00
9721;BME280;4899;42.644;23.366;2022-08-04T04:49:28;94518.44;;;16.20;100.00
9721;BME280;4899;42.644;23.366;2022-08-04T04:52:02;94540.22;;;16.31;100.00
9721;BME280;4899;42.644;23.366;2022-08-04T04:54:33;94532.84;;;16.34;100.00
9721;BME280;4899;42.644;23.366;2022-08-04T04:57:09;94510.91;;;16.31;100.00
9721;BME280;4899;42.644;23.366;2022-08-04T04:59:44;94526.75;;;16.42;100.00
9721;BME280;4899;42.644;23.366;2022-08-04T05:02:30;94524.47;;;16.56;100.00
9721;BME280;4899;42.644;23.366;2022-08-04T05:05:26;94532.28;;;16.72;100.00
9721;BME280;4899;42.644;23.366;2022-08-04T05:08:15;94519.94;;;16.84;100.00
9721;BME280;4899;42.644;23.366;2022-08-04T05:10:54;94509.78;;;16.95;100.00
9721;BME280;4899;42.644;23.366;2022-08-04T05:13:33;94512.06;;;17.16;100.00
9721;BME280;4899;42.644;23.366;2022-08-04T05:16:08;94526.78;;;17.28;100.00
9721;BME280;4899;42.644;23.366;2022-08-04T05:18:39;94530.72;;;17.37;100.00
9721;BME280;4899;42.644;23.366;2022-08-04T05:21:27;94542.81;;;17.49;100.00
9721;BME280;4899;42.644;23.366;2022-08-04T05:24:01;94534.13;;;17.61;100.00
9721;BME280;4899;42.644;23.366;2022-08-04T05:26:31;94527.09;;;17.61;100.00
9721;BME280;4899;42.644;23.366;2022-08-04T05:29:02;94538.94;;;17.78;100.00
9721;BME280;4899;42.644;23.366;2022-08-04T05:31:35;94518.41;;;17.73;100.00
9721;BME280;4899;42.644;23.366;2022-08-04T05:34:06;94540.28;;;17.91;100.00
9721;BME280;4899;42.644;23.366;2022-08-04T05:36:38;94540.00;;;17.96;100.00
9721;BME280;4899;42.644;23.366;2022-08-04T05:39:08;94522.38;;;17.86;100.00
9721;BME280;4899;42.644;23.366;2022-08-04T05:41:38;94549.03;;;18.02;100.00
9721;BME280;4899;42.644;23.366;2022-08-04T05:44:08;94549.03;;;18.02;100.00
9721;BME280;4899;42.644;23.366;2022-08-04T05:46:36;94546.16;;;18.07;100.00
9721;BME280;4899;42.644;23.366;2022-08-04T05:49:03;94542.44;;;18.08;100.00
9721;BME280;4899;42.644;23.366;2022-08-04T05:51:33;94552.41;;;18.26;100.00
9721;BME280;4899;42.644;23.366;2022-08-04T05:54:01;94532.34;;;18.26;100.00
9721;BME280;4899;42.644;23.366;2022-08-04T05:56:28;94546.63;;;18.59;100.00
9721;BME280;4899;42.644;23.366;2022-08-04T05:58:58;94528.31;;;18.55;100.00
9721;BME280;4899;42.644;23.366;2022-08-04T06:01:28;94547.63;;;18.73;100.00
9721;BME280;4899;42.644;23.366;2022-08-04T06:03:56;94537.16;;;18.70;100.00
9721;BME280;4899;42.644;23.366;2022-08-04T06:06:24;94563.53;;;18.91;100.00
9721;BME280;4899;42.644;23.366;2022-08-04T06:08:51;94558.06;;;19.00;100.00
9721;BME280;4899;42.644;23.366;2022-08-04T06:11:19;94548.94;;;19.13;100.00
9721;BME280;4899;42.644;23.366;2022-08-04T06:13:50;94553.22;;;19.28;100.00
9721;BME280;4899;42.644;23.366;2022-08-04T06:16:22;94550.09;;;19.46;100.00
9721;BME280;4899;42.644;23.366;2022-08-04T06:18:53;94547.22;;;19.54;100.00
9721;BME280;4899;42.644;23.366;2022-08-04T06:21:23;94550.41;;;19.71;100.00
9721;BME280;4899;42.644;23.366;2022-08-04T06:23:54;94542.06;;;19.91;100.00
9721;BME280;4899;42.644;23.366;2022-08-04T06:26:22;94554.88;;;20.07;100.00
9721;BME280;4899;42.644;23.366;2022-08-04T06:28:50;94552.72;;;20.13;100.00
9721;BME280;4899;42.644;23.366;2022-08-04T06:31:19;94533.72;;;20.16;100.00
9721;BME280;4899;42.644;23.366;2022-08-04T06:34:00;94540.91;;;20.29;100.00
9721;BME280;4899;42.644;23.366;2022-08-04T06:36:29;94562.16;;;20.65;100.00
9721;BME280;4899;42.644;23.366;2022-08-04T06:38:58;94564.88;;;20.79;100.00
9721;BME280;4899;42.644;23.366;2022-08-04T06:41:26;94572.09;;;20.97;100.00
9721;BME280;4899;42.644;23.366;2022-08-04T06:43:58;94566.22;;;21.10;100.00
9721;BME280;4899;42.644;23.366;2022-08-04T06:46:27;94567.06;;;21.25;100.00
9721;BME280;4899;42.644;23.366;2022-08-04T06:48:56;94573.88;;;21.40;100.00
9721;BME280;4899;42.644;23.366;2022-08-04T06:51:25;94576.91;;;21.53;100.00
9721;BME280;4899;42.644;23.366;2022-08-04T06:53:54;94575.50;;;21.63;100.00
9721;BME280;4899;42.644;23.366;2022-08-04T06:56:21;94567.66;;;21.70;100.00
9721;BME280;4899;42.644;23.366;2022-08-04T06:58:50;94540.66;;;21.55;100.00
9721;BME280;4899;42.644;23.366;2022-08-04T07:01:19;94575.41;;;21.48;100.00
9721;BME280;4899;42.644;23.366;2022-08-04T07:03:47;94556.66;;;21.32;100.00
9721;BME280;4899;42.644;23.366;2022-08-04T07:06:14;94579.59;;;21.57;100.00
9721;BME280;4899;42.644;23.366;2022-08-04T07:08:42;94578.13;;;21.66;100.00
9721;BME280;4899;42.644;23.366;2022-08-04T07:11:10;94574.00;;;21.72;100.00
9721;BME280;4899;42.644;23.366;2022-08-04T07:13:39;94545.97;;;21.73;100.00
9721;BME280;4899;42.644;23.366;2022-08-04T07:16:08;94557.97;;;21.85;100.00
9721;BME280;4899;42.644;23.366;2022-08-04T07:18:38;94566.69;;;22.24;100.00
9721;BME280;4899;42.644;23.366;2022-08-04T07:21:05;94545.00;;;22.41;100.00
9721;BME280;4899;42.644;23.366;2022-08-04T07:23:32;94558.13;;;22.70;100.00
9721;BME280;4899;42.644;23.366;2022-08-04T07:26:01;94569.34;;;23.02;100.00
9721;BME280;4899;42.644;23.366;2022-08-04T07:28:28;94567.09;;;23.15;100.00
9721;BME280;4899;42.644;23.366;2022-08-04T07:30:57;94571.19;;;23.38;100.00
9721;BME280;4899;42.644;23.366;2022-08-04T07:33:24;94558.44;;;23.36;100.00
9721;BME280;4899;42.644;23.366;2022-08-04T07:35:52;94556.94;;;23.28;100.00
9721;BME280;4899;42.644;23.366;2022-08-04T07:38:20;94568.88;;;23.50;100.00
9721;BME280;4899;42.644;23.366;2022-08-04T07:40:47;94563.59;;;23.54;100.00
9721;BME280;4899;42.644;23.366;2022-08-04T07:43:16;94564.00;;;23.52;100.00
9721;BME280;4899;42.644;23.366;2022-08-04T07:45:43;94564.00;;;23.52;100.00
9721;BME280;4899;42.644;23.366;2022-08-04T07:48:10;94559.13;;;23.58;100.00
9721;BME280;4899;42.644;23.366;2022-08-04T07:50:41;94561.00;;;23.50;100.00
9721;BME280;4899;42.644;23.366;2022-08-04T07:53:08;94563.22;;;23.66;100.00
9721;BME280;4899;42.644;23.366;2022-08-04T07:55:41;94558.28;;;23.79;100.00
9721;BME280;4899;42.644;23.366;2022-08-04T07:58:09;94563.41;;;24.11;100.00
9721;BME280;4899;42.644;23.366;2022-08-04T08:00:38;94553.13;;;24.38;100.00
9721;BME280;4899;42.644;23.366;2022-08-04T08:03:08;94561.47;;;24.74;100.00
9721;BME280;4899;42.644;23.366;2022-08-04T08:05:35;94552.06;;;24.76;100.00
9721;BME280;4899;42.644;23.366;2022-08-04T08:08:06;94551.50;;;24.96;100.00
9721;BME280;4899;42.644;23.366;2022-08-04T08:10:32;94555.22;;;25.05;100.00
9721;BME280;4899;42.644;23.366;2022-08-04T08:13:00;94565.97;;;25.22;100.00
9721;BME280;4899;42.644;23.366;2022-08-04T08:15:28;94551.16;;;25.35;100.00
9721;BME280;4899;42.644;23.366;2022-08-04T08:17:57;94559.97;;;25.55;100.00
9721;BME280;4899;42.644;23.366;2022-08-04T08:20:24;94571.16;;;25.63;100.00
9721;BME280;4899;42.644;23.366;2022-08-04T08:22:51;94558.44;;;25.58;100.00
9721;BME280;4899;42.644;23.366;2022-08-04T08:25:18;94573.34;;;25.71;100.00
9721;BME280;4899;42.644;23.366;2022-08-04T08:27:45;94557.66;;;25.61;100.00
9721;BME280;4899;42.644;23.366;2022-08-04T08:30:12;94562.22;;;25.57;100.00
9721;BME280;4899;42.644;23.366;2022-08-04T08:32:39;94566.53;;;25.74;100.00
9721;BME280;4899;42.644;23.366;2022-08-04T08:35:08;94562.69;;;25.82;100.00
9721;BME280;4899;42.644;23.366;2022-08-04T08:37:38;94567.97;;;25.82;100.00
9721;BME280;4899;42.644;23.366;2022-08-04T08:40:24;94577.28;;;25.90;100.00
9721;BME280;4899;42.644;23.366;2022-08-04T08:43:18;94567.69;;;26.03;97.81
9721;BME280;4899;42.644;23.366;2022-08-04T08:45:56;94544.72;;;26.00;96.52
9721;BME280;4899;42.644;23.366;2022-08-04T08:48:51;94553.94;;;26.70;88.70
9721;BME280;4899;42.644;23.366;2022-08-04T08:51:51;94564.94;;;27.35;82.56
9721;BME280;4899;42.644;23.366;2022-08-04T08:54:49;94565.78;;;27.48;78.34
9721;BME280;4899;42.644;23.366;2022-08-04T08:57:39;94558.44;;;27.59;80.77
9721;BME280;4899;42.644;23.366;2022-08-04T09:00:12;94556.66;;;27.92;79.16
9721;BME280;4899;42.644;23.366;2022-08-04T09:03:04;94558.06;;;28.33;76.15
9721;BME280;4899;42.644;23.366;2022-08-04T09:05:45;94547.66;;;28.58;71.98
9721;BME280;4899;42.644;23.366;2022-08-04T09:11:19;94552.84;;;29.10;75.17
9721;BME280;4899;42.644;23.366;2022-08-04T09:13:55;94561.38;;;29.02;73.75
9721;BME280;4899;42.644;23.366;2022-08-04T09:16:30;94534.91;;;29.02;71.15
9721;BME280;4899;42.644;23.366;2022-08-04T09:19:02;94541.72;;;29.16;72.25
9721;BME280;4899;42.644;23.366;2022-08-04T09:21:32;94552.66;;;29.18;75.35
9721;BME280;4899;42.644;23.366;2022-08-04T09:24:08;94538.31;;;28.86;64.96
9721;BME280;4899;42.644;23.366;2022-08-04T09:26:40;94535.25;;;28.39;58.73
9721;BME280;4899;42.644;23.366;2022-08-04T09:29:14;94530.31;;;28.21;62.35
9721;BME280;4899;42.644;23.366;2022-08-04T09:31:51;94541.78;;;28.51;63.47
9721;BME280;4899;42.644;23.366;2022-08-04T09:34:29;94542.28;;;28.45;63.66
9721;BME280;4899;42.644;23.366;2022-08-04T09:37:03;94534.13;;;28.20;67.07
9721;BME280;4899;42.644;23.366;2022-08-04T09:39:47;94535.75;;;27.98;61.56
9721;BME280;4899;42.644;23.366;2022-08-04T09:42:21;94553.44;;;28.01;57.48
9721;BME280;4899;42.644;23.366;2022-08-04T09:44:59;94521.69;;;27.84;58.93
9721;BME280;4899;42.644;23.366;2022-08-04T09:47:32;94529.19;;;27.86;60.49
9721;BME280;4899;42.644;23.366;2022-08-04T09:50:05;94530.25;;;28.08;61.71
9721;BME280;4899;42.644;23.366;2022-08-04T09:52:46;94531.19;;;28.34;64.29
9721;BME280;4899;42.644;23.366;2022-08-04T09:55:31;94505.22;;;28.29;60.91
9721;BME280;4899;42.644;23.366;2022-08-04T09:58:06;94533.78;;;28.54;62.75
9721;BME280;4899;42.644;23.366;2022-08-04T10:00:40;94535.56;;;28.73;60.86
9721;BME280;4899;42.644;23.366;2022-08-04T10:03:10;94534.75;;;28.76;55.23
9721;BME280;4899;42.644;23.366;2022-08-04T10:05:47;94531.44;;;28.89;58.01
9721;BME280;4899;42.644;23.366;2022-08-04T10:08:32;94523.06;;;28.90;58.35
9721;BME280;4899;42.644;23.366;2022-08-04T10:11:08;94518.59;;;28.87;57.41
9721;BME280;4899;42.644;23.366;2022-08-04T10:13:48;94521.59;;;28.89;56.32
9721;BME280;4899;42.644;23.366;2022-08-04T10:16:31;94528.19;;;28.97;56.77
9721;BME280;4899;42.644;23.366;2022-08-04T10:19:08;94518.34;;;28.82;58.45
9721;BME280;4899;42.644;23.366;2022-08-04T10:21:49;94523.56;;;29.01;58.18
9721;BME280;4899;42.644;23.366;2022-08-04T10:24:29;94526.56;;;29.16;57.72
9721;BME280;4899;42.644;23.366;2022-08-04T10:27:03;94526.47;;;29.20;54.89
9721;BME280;4899;42.644;23.366;2022-08-04T10:29:39;94529.59;;;29.31;50.40
9721;BME280;4899;42.644;23.366;2022-08-04T10:32:13;94525.66;;;29.64;48.80
9721;BME280;4899;42.644;23.366;2022-08-04T10:34:51;94525.69;;;29.90;49.92
9721;BME280;4899;42.644;23.366;2022-08-04T10:37:25;94513.38;;;29.96;49.86
9721;BME280;4899;42.644;23.366;2022-08-04T10:39:58;94526.44;;;30.41;46.53
9721;BME280;4899;42.644;23.366;2022-08-04T10:42:55;94519.00;;;30.61;45.17
9721;BME280;4899;42.644;23.366;2022-08-04T10:45:25;94509.44;;;30.64;42.35
9721;BME280;4899;42.644;23.366;2022-08-04T10:47:58;94517.97;;;30.34;42.75
9721;BME280;4899;42.644;23.366;2022-08-04T10:50:28;94517.44;;;30.00;42.94
9721;BME280;4899;42.644;23.366;2022-08-04T10:53:02;94506.34;;;29.51;43.73
9721;BME280;4899;42.644;23.366;2022-08-04T10:55:32;94516.03;;;29.29;47.02
9721;BME280;4899;42.644;23.366;2022-08-04T10:58:05;94507.03;;;29.39;48.05
9721;BME280;4899;42.644;23.366;2022-08-04T11:00:35;94499.56;;;29.50;49.44
9721;BME280;4899;42.644;23.366;2022-08-04T11:03:08;94500.91;;;30.09;48.79
9721;BME280;4899;42.644;23.366;2022-08-04T11:05:45;94492.47;;;31.71;44.73
9721;BME280;4899;42.644;23.366;2022-08-04T11:08:15;94504.41;;;33.23;43.49
9721;BME280;4899;42.644;23.366;2022-08-04T11:10:46;94515.81;;;34.03;40.16
9721;BME280;4899;42.644;23.366;2022-08-04T11:13:16;94501.22;;;34.13;38.12
9721;BME280;4899;42.644;23.366;2022-08-04T11:15:46;94496.44;;;34.17;37.35
9721;BME280;4899;42.644;23.366;2022-08-04T11:18:23;94500.78;;;33.72;38.11
9721;BME280;4899;42.644;23.366;2022-08-04T11:20:55;94503.38;;;34.57;37.12
9721;BME280;4899;42.644;23.366;2022-08-04T11:23:26;94501.09;;;34.88;36.98
9721;BME280;4899;42.644;23.366;2022-08-04T11:25:59;94501.91;;;36.06;34.98
9721;BME280;4899;42.644;23.366;2022-08-04T11:28:38;94501.38;;;37.71;32.56
9721;BME280;4899;42.644;23.366;2022-08-04T11:31:13;94499.09;;;37.32;32.13
9721;BME280;4899;42.644;23.366;2022-08-04T11:33:49;94492.09;;;38.03;30.78
9721;BME280;4899;42.644;23.366;2022-08-04T11:36:22;94496.00;;;38.02;31.99
9721;BME280;4899;42.644;23.366;2022-08-04T11:39:01;94494.63;;;36.42;32.09
9721;BME280;4899;42.644;23.366;2022-08-04T11:41:38;94487.16;;;35.67;32.37
9721;BME280;4899;42.644;23.366;2022-08-04T11:44:11;94485.56;;;34.77;34.34
9721;BME280;4899;42.644;23.366;2022-08-04T11:46:44;94480.63;;;34.61;35.70
9721;BME280;4899;42.644;23.366;2022-08-04T11:49:19;94476.72;;;36.33;32.23
9721;BME280;4899;42.644;23.366;2022-08-04T11:51:50;94484.28;;;35.11;33.85
9721;BME280;4899;42.644;23.366;2022-08-04T11:54:17;94486.50;;;34.17;34.95
9721;BME280;4899;42.644;23.366;2022-08-04T11:56:46;94474.44;;;33.98;33.90
9721;BME280;4899;42.644;23.366;2022-08-04T11:59:14;94480.75;;;36.64;32.97
9721;BME280;4899;42.644;23.366;2022-08-04T12:02:04;94464.53;;;38.57;30.26
9721;BME280;4899;42.644;23.366;2022-08-04T12:04:39;94487.47;;;40.40;29.50
9721;BME280;4899;42.644;23.366;2022-08-04T12:07:15;94495.03;;;41.11;28.32
9721;BME280;4899;42.644;23.366;2022-08-04T12:09:48;94480.69;;;41.68;27.10
9721;BME280;4899;42.644;23.366;2022-08-04T12:12:22;94486.03;;;42.28;26.53
9721;BME280;4899;42.644;23.366;2022-08-04T12:14:58;94487.63;;;42.18;25.79
9721;BME280;4899;42.644;23.366;2022-08-04T12:17:34;94492.41;;;42.74;25.52
9721;BME280;4899;42.644;23.366;2022-08-04T12:20:04;94491.38;;;42.77;25.04
9721;BME280;4899;42.644;23.366;2022-08-04T12:22:36;94488.34;;;40.71;25.78
9721;BME280;4899;42.644;23.366;2022-08-04T12:25:08;94487.31;;;39.71;26.90
9721;BME280;4899;42.644;23.366;2022-08-04T12:27:39;94478.06;;;38.73;26.78
9721;BME280;4899;42.644;23.366;2022-08-04T12:30:10;94471.31;;;37.98;28.63
9721;BME280;4899;42.644;23.366;2022-08-04T12:32:40;94467.69;;;37.18;29.66
9721;BME280;4899;42.644;23.366;2022-08-04T12:35:14;94465.66;;;35.61;31.32
9721;BME280;4899;42.644;23.366;2022-08-04T12:37:50;94461.25;;;34.75;32.26
9721;BME280;4899;42.644;23.366;2022-08-04T12:40:26;94457.53;;;33.92;32.63
9721;BME280;4899;42.644;23.366;2022-08-04T12:43:01;94444.09;;;33.26;33.92
9721;BME280;4899;42.644;23.366;2022-08-04T12:45:30;94450.50;;;32.73;35.18
9721;BME280;4899;42.644;23.366;2022-08-04T12:47:59;94424.38;;;32.23;34.88
9721;BME280;4899;42.644;23.366;2022-08-04T12:50:28;94447.78;;;31.88;37.07
9721;BME280;4899;42.644;23.366;2022-08-04T12:52:56;94424.44;;;31.51;38.05
9721;BME280;4899;42.644;23.366;2022-08-04T12:55:26;94437.91;;;31.26;38.36
9721;BME280;4899;42.644;23.366;2022-08-04T12:57:54;94430.09;;;31.10;38.64
9721;BME280;4899;42.644;23.366;2022-08-04T13:00:24;94427.88;;;30.86;40.27
9721;BME280;4899;42.644;23.366;2022-08-04T13:02:53;94429.63;;;30.20;41.09
9721;BME280;4899;42.644;23.366;2022-08-04T13:05:24;94431.47;;;30.11;39.41
9721;BME280;4899;42.644;23.366;2022-08-04T13:07:55;94433.25;;;29.88;41.05
9721;BME280;4899;42.644;23.366;2022-08-04T13:10:23;94414.16;;;29.68;39.55
9721;BME280;4899;42.644;23.366;2022-08-04T13:12:53;94427.84;;;29.66;41.17
9721;BME280;4899;42.644;23.366;2022-08-04T13:15:22;94432.75;;;29.68;40.56
9721;BME280;4899;42.644;23.366;2022-08-04T13:17:54;94422.44;;;29.70;40.19
9721;BME280;4899;42.644;23.366;2022-08-04T13:20:24;94423.88;;;30.69;39.63
9721;BME280;4899;42.644;23.366;2022-08-04T13:23:02;94434.06;;;32.84;37.33
9721;BME280;4899;42.644;23.366;2022-08-04T13:25:30;94446.25;;;36.16;33.85
9721;BME280;4899;42.644;23.366;2022-08-04T13:27:58;94447.16;;;38.52;29.91
9721;BME280;4899;42.644;23.366;2022-08-04T13:30:27;94427.34;;;40.51;28.04
9721;BME280;4899;42.644;23.366;2022-08-04T13:32:59;94448.94;;;41.99;26.55
9721;BME280;4899;42.644;23.366;2022-08-04T13:35:28;94443.59;;;42.61;26.26
9721;BME280;4899;42.644;23.366;2022-08-04T13:37:56;94455.50;;;43.46;24.88
9721;BME280;4899;42.644;23.366;2022-08-04T13:40:26;94448.84;;;43.60;25.29
9721;BME280;4899;42.644;23.366;2022-08-04T13:42:54;94453.09;;;43.88;25.84
9721;BME280;4899;42.644;23.366;2022-08-04T13:45:23;94445.25;;;43.84;24.57
9721;BME280;4899;42.644;23.366;2022-08-04T13:48:05;94447.44;;;43.73;24.74
9721;BME280;4899;42.644;23.366;2022-08-04T13:50:33;94430.78;;;44.08;23.76
9721;BME280;4899;42.644;23.366;2022-08-04T13:53:01;94432.09;;;44.68;23.76
9721;BME280;4899;42.644;23.366;2022-08-04T13:55:31;94424.81;;;44.84;23.19
9721;BME280;4899;42.644;23.366;2022-08-04T13:58:02;94438.69;;;44.46;22.38
9721;BME280;4899;42.644;23.366;2022-08-04T14:00:42;94430.25;;;44.97;23.57
9721;BME280;4899;42.644;23.366;2022-08-04T14:03:20;94428.16;;;45.45;23.16
9721;BME280;4899;42.644;23.366;2022-08-04T14:08:50;94423.59;;;45.39;23.43
9721;BME280;4899;42.644;23.366;2022-08-04T14:11:20;94421.72;;;45.34;22.51
9721;BME280;4899;42.644;23.366;2022-08-04T14:13:47;94408.56;;;44.23;23.53